TDCF/DCF METAR and TAF weather

Enter ICAO airport designator
Station Type Date Time Source
TDCF METAR 2021/05/11 22:00 UTC NOAA

TDCF 112200Z 11007KT 9999 SCT018 28/20 Q1013


Station Type Date Time Source
TDCF Decoded METAR 2021/05/11 22:00 UTC NOAA

Canefield Airport, Dominica (TDCF) 15-32N 061-24W 5M
May 11, 2021 - 06:00 PM EDT / 2021.05.11 2200 UTC
Wind: from the ESE (110 degrees) at 8 MPH (7 KT):0
Visibility: greater than 7 mile(s):0
Sky conditions: partly cloudy
Temperature: 82 F (28 C)
Dew Point: 68 F (20 C)
Relative Humidity: 61%
Pressure (altimeter): 29.91 in. Hg (1013 hPa)
ob: TDCF 112200Z 11007KT 9999 SCT018 28/20 Q1013
cycle: 22

Station Type Date Time Source
TDCF TAF 2012/05/01 18:15 UTC NOAA

TAF TDCF 011600Z 0118/0218 110010KT 9999 SCT018 BKN030
TEMPO 0118/0206 6000 SHRA BKN014 BKN070

Example: see airport list